createdAt,value
2022-07-30T00:00:40.025Z,17.92
2022-07-30T00:03:08.344Z,17.95
2022-07-30T00:05:36.657Z,17.42
2022-07-30T00:08:05.372Z,16.83
2022-07-30T00:10:33.666Z,18.15
2022-07-30T00:13:03.743Z,20.55
2022-07-30T00:15:33.449Z,22.67
2022-07-30T00:18:01.809Z,23.00
2022-07-30T00:20:30.269Z,23.80
2022-07-30T00:23:07.813Z,21.90
2022-07-30T00:25:38.713Z,23.23
2022-07-30T00:28:07.107Z,26.48
2022-07-30T00:30:37.490Z,25.75
2022-07-30T00:33:05.742Z,28.38
2022-07-30T00:35:36.585Z,29.13
2022-07-30T00:38:04.826Z,28.58
2022-07-30T00:40:33.306Z,31.05
2022-07-30T00:43:01.693Z,32.22
2022-07-30T00:45:30.096Z,33.42
2022-07-30T00:48:01.588Z,34.47
2022-07-30T00:50:29.800Z,35.58
2022-07-30T00:52:58.394Z,35.17
2022-07-30T00:55:26.645Z,34.88
2022-07-30T00:57:57.552Z,33.70
2022-07-30T01:00:26.159Z,35.08
2022-07-30T01:02:54.758Z,28.65
2022-07-30T01:05:25.108Z,27.40
2022-07-30T01:07:53.321Z,27.17
2022-07-30T01:10:21.620Z,27.38
2022-07-30T01:12:52.724Z,27.48
2022-07-30T01:15:21.283Z,26.50
2022-07-30T01:17:53.186Z,26.42
2022-07-30T01:20:26.993Z,28.27
2022-07-30T01:23:03.559Z,26.00
2022-07-30T01:25:57.472Z,25.00
2022-07-30T01:28:29.865Z,24.33
2022-07-30T01:31:00.098Z,23.70
2022-07-30T01:33:30.466Z,24.10
2022-07-30T01:36:00.951Z,24.60
2022-07-30T01:38:34.941Z,23.35
2022-07-30T01:41:06.581Z,23.92
2022-07-30T01:43:38.150Z,22.70
2022-07-30T01:46:08.002Z,23.92
2022-07-30T01:48:38.757Z,22.88
2022-07-30T01:51:08.064Z,22.45
2022-07-30T01:53:39.651Z,23.17
2022-07-30T01:56:11.420Z,23.65
2022-07-30T01:58:42.657Z,24.45
2022-07-30T02:01:11.143Z,25.17
2022-07-30T02:03:39.710Z,25.40
2022-07-30T02:06:12.768Z,23.52
2022-07-30T02:08:45.407Z,27.00
2022-07-30T02:11:38.096Z,26.83
2022-07-30T02:14:12.562Z,25.27
2022-07-30T02:16:44.708Z,25.48
2022-07-30T02:19:15.611Z,25.65
2022-07-30T02:21:50.324Z,25.05
2022-07-30T02:24:23.377Z,25.80
2022-07-30T02:26:57.048Z,25.85
2022-07-30T02:29:26.325Z,25.23
2022-07-30T02:31:59.026Z,24.98
2022-07-30T02:34:29.908Z,24.50
2022-07-30T02:36:59.855Z,25.50
2022-07-30T02:39:30.238Z,25.00
2022-07-30T02:42:00.711Z,25.50
2022-07-30T02:44:30.898Z,25.17
2022-07-30T02:47:04.721Z,24.70
2022-07-30T02:49:36.765Z,24.65
2022-07-30T02:52:09.058Z,23.52
2022-07-30T02:54:40.556Z,24.02
2022-07-30T02:57:10.848Z,31.85
2022-07-30T02:59:42.368Z,31.77
2022-07-30T03:02:12.513Z,32.80
2022-07-30T03:04:45.578Z,33.30
2022-07-30T03:07:18.704Z,34.60
2022-07-30T03:09:51.445Z,33.22
2022-07-30T03:12:24.370Z,32.80
2022-07-30T03:14:53.117Z,32.92
2022-07-30T03:17:23.543Z,33.75
2022-07-30T03:19:53.502Z,34.45
2022-07-30T03:22:23.639Z,34.22
2022-07-30T03:24:54.367Z,34.33
2022-07-30T03:27:25.160Z,33.45
2022-07-30T03:29:55.451Z,33.42
2022-07-30T03:32:26.166Z,34.95
2022-07-30T03:35:01.969Z,35.97
2022-07-30T03:37:36.917Z,36.35
2022-07-30T03:40:06.686Z,36.72
2022-07-30T03:42:38.981Z,39.65
2022-07-30T03:45:09.550Z,40.75
2022-07-30T03:47:40.390Z,39.88
2022-07-30T03:50:09.495Z,43.03
2022-07-30T03:52:40.745Z,42.25
2022-07-30T03:55:11.725Z,43.55
2022-07-30T03:57:43.566Z,43.95
2022-07-30T04:00:15.510Z,43.00
2022-07-30T04:02:44.318Z,40.85
2022-07-30T04:05:13.264Z,40.25
2022-07-30T04:07:45.477Z,37.80
2022-07-30T04:10:14.716Z,37.00
2022-07-30T04:12:44.797Z,37.05
2022-07-30T04:16:37.886Z,37.95
2022-07-30T04:18:05.228Z,38.58
2022-07-30T04:20:40.913Z,33.20
2022-07-30T04:23:10.856Z,34.72
2022-07-30T04:25:39.997Z,35.03
2022-07-30T04:28:11.968Z,33.55
2022-07-30T04:30:40.376Z,32.88
2022-07-30T04:33:09.416Z,35.78
2022-07-30T04:35:51.158Z,35.25
2022-07-30T04:38:20.436Z,36.65
2022-07-30T04:40:50.241Z,37.38
2022-07-30T04:43:19.854Z,33.95
2022-07-30T04:45:48.092Z,35.78
2022-07-30T04:48:16.265Z,30.98
2022-07-30T04:50:48.025Z,32.65
2022-07-30T04:53:19.637Z,27.45
2022-07-30T04:55:49.906Z,30.25
2022-07-30T04:58:21.947Z,30.85
2022-07-30T05:00:52.256Z,31.10
2022-07-30T05:03:22.549Z,30.38
2022-07-30T05:05:57.169Z,32.72
2022-07-30T05:08:26.713Z,32.05
2022-07-30T05:10:56.740Z,33.55
2022-07-30T05:13:34.603Z,34.97
2022-07-30T05:16:07.068Z,32.83
2022-07-30T05:18:35.351Z,30.75
2022-07-30T05:21:03.546Z,31.25
2022-07-30T05:23:31.828Z,31.92
2022-07-30T05:26:03.187Z,31.55
2022-07-30T05:28:32.851Z,31.80
2022-07-30T05:31:01.065Z,30.55
2022-07-30T05:33:40.910Z,30.92
2022-07-30T05:36:10.993Z,27.95
2022-07-30T05:38:39.297Z,27.63
2022-07-30T05:41:30.593Z,28.30
2022-07-30T05:43:57.380Z,27.83
2022-07-30T05:46:25.904Z,26.23
2022-07-30T05:48:54.225Z,27.17
2022-07-30T05:51:22.607Z,28.45
2022-07-30T05:53:51.369Z,29.40
2022-07-30T05:56:19.567Z,26.98
2022-07-30T05:58:49.275Z,23.33
2022-07-30T06:01:19.090Z,22.77
2022-07-30T06:03:50.609Z,19.40
2022-07-30T06:06:22.886Z,17.42
2022-07-30T06:08:51.875Z,14.80
2022-07-30T06:11:20.359Z,11.80
2022-07-30T06:13:49.454Z,11.73
2022-07-30T06:16:19.135Z,8.45
2022-07-30T06:18:47.576Z,7.57
2022-07-30T06:21:15.758Z,5.50
2022-07-30T06:23:43.937Z,4.80
2022-07-30T06:26:12.308Z,4.85
2022-07-30T06:28:40.564Z,4.60
2022-07-30T06:31:09.196Z,4.53
2022-07-30T06:33:38.836Z,4.03
2022-07-30T06:36:07.655Z,3.42
2022-07-30T06:38:35.878Z,4.10
2022-07-30T06:41:04.565Z,3.25
2022-07-30T06:43:33.037Z,3.03
2022-07-30T06:46:01.556Z,3.10
2022-07-30T06:48:32.111Z,3.25
2022-07-30T06:51:01.725Z,3.35
2022-07-30T06:53:30.030Z,2.42
2022-07-30T06:56:00.413Z,2.60
2022-07-30T06:58:29.659Z,2.33
2022-07-30T07:00:57.908Z,2.38
2022-07-30T07:03:40.309Z,0.52
2022-07-30T07:06:10.578Z,1.17
2022-07-30T07:08:39.278Z,1.00
2022-07-30T07:11:07.726Z,1.35
2022-07-30T07:13:35.915Z,1.83
2022-07-30T07:16:04.274Z,1.30
2022-07-30T07:18:32.559Z,0.65
2022-07-30T07:21:00.877Z,0.63
2022-07-30T07:23:41.397Z,0.50
2022-07-30T07:26:11.995Z,0.90
2022-07-30T07:28:41.188Z,0.88
2022-07-30T07:31:09.686Z,2.55
2022-07-30T07:33:38.567Z,2.63
2022-07-30T07:36:07.330Z,2.58
2022-07-30T07:38:37.857Z,2.13
2022-07-30T07:41:06.496Z,2.40
2022-07-30T07:43:34.768Z,1.80
2022-07-30T07:46:03.029Z,1.95
2022-07-30T07:48:31.458Z,2.08
2022-07-30T07:51:00.755Z,1.92
2022-07-30T07:53:29.292Z,1.63
2022-07-30T07:55:59.773Z,1.23
2022-07-30T07:58:29.468Z,1.08
2022-07-30T08:00:59.343Z,1.45
2022-07-30T08:03:27.580Z,1.17
2022-07-30T08:06:02.818Z,1.10
2022-07-30T08:08:36.618Z,1.10
2022-07-30T08:11:07.528Z,0.55
2022-07-30T08:13:50.307Z,0.68
2022-07-30T08:16:20.788Z,0.60
2022-07-30T08:18:49.157Z,0.40
2022-07-30T08:21:17.383Z,0.50
2022-07-30T08:23:45.557Z,0.50
2022-07-30T08:26:15.214Z,1.05
2022-07-30T08:28:45.600Z,0.95
2022-07-30T08:31:13.969Z,0.77
2022-07-30T08:33:42.241Z,0.73
2022-07-30T08:36:10.550Z,1.00
2022-07-30T08:38:39.969Z,0.75
2022-07-30T08:41:08.520Z,0.68
2022-07-30T08:43:40.565Z,0.50
2022-07-30T08:46:12.303Z,0.40
2022-07-30T08:48:42.108Z,0.70
2022-07-30T08:51:10.709Z,0.60
2022-07-30T08:53:39.268Z,0.52
2022-07-30T08:56:08.602Z,0.80
2022-07-30T08:58:38.296Z,0.60
2022-07-30T09:01:07.357Z,0.70
2022-07-30T09:03:44.163Z,0.60
2022-07-30T09:06:12.852Z,0.93
2022-07-30T09:08:41.852Z,0.73
2022-07-30T09:11:10.058Z,0.57
2022-07-30T09:13:42.758Z,0.68
2022-07-30T09:16:21.335Z,0.43
2022-07-30T09:18:50.346Z,0.63
2022-07-30T09:21:20.859Z,0.40
2022-07-30T09:23:59.859Z,0.60
2022-07-30T09:26:30.316Z,0.50
2022-07-30T09:32:00.126Z,0.47
2022-07-30T09:34:29.935Z,0.60
2022-07-30T09:37:00.250Z,0.77
2022-07-30T09:39:33.008Z,0.50
2022-07-30T09:42:01.690Z,1.25
2022-07-30T09:44:31.512Z,0.30
2022-07-30T09:47:02.894Z,0.50
2022-07-30T09:49:32.900Z,0.40
2022-07-30T09:52:01.497Z,0.68
2022-07-30T09:54:51.117Z,0.47
2022-07-30T09:57:25.894Z,0.73
2022-07-30T09:59:57.693Z,0.52
2022-07-30T10:02:33.661Z,0.60
2022-07-30T10:05:14.545Z,0.82
2022-07-30T10:07:51.342Z,0.60
2022-07-30T10:10:25.204Z,0.50
2022-07-30T10:12:57.846Z,0.47
2022-07-30T10:15:29.059Z,0.40
2022-07-30T10:18:00.593Z,0.60
2022-07-30T10:20:29.234Z,0.50
2022-07-30T10:22:58.270Z,0.55
2022-07-30T10:25:28.390Z,0.47
2022-07-30T10:27:58.229Z,0.63
2022-07-30T10:30:29.219Z,0.70
2022-07-30T10:33:00.360Z,0.60
2022-07-30T10:35:34.839Z,0.40
2022-07-30T10:38:13.661Z,0.50
2022-07-30T10:40:49.376Z,0.60
2022-07-30T10:43:48.455Z,0.63
2022-07-30T10:46:28.081Z,0.50
2022-07-30T10:49:11.705Z,0.60
2022-07-30T10:51:49.499Z,0.68
2022-07-30T10:54:39.550Z,0.60
2022-07-30T10:57:11.549Z,0.68
2022-07-30T11:00:15.562Z,0.50
2022-07-30T11:03:14.864Z,0.82
2022-07-30T11:05:48.309Z,0.70
2022-07-30T11:08:42.503Z,0.50
2022-07-30T11:12:02.017Z,0.80
2022-07-30T11:15:06.287Z,0.60
2022-07-30T11:18:05.090Z,0.82
2022-07-30T11:20:47.689Z,0.50
2022-07-30T11:23:40.642Z,0.60
2022-07-30T11:26:14.421Z,0.50
2022-07-30T11:28:45.710Z,0.50
2022-07-30T11:31:30.800Z,0.50
2022-07-30T11:34:31.218Z,0.60
2022-07-30T11:37:21.895Z,0.50
2022-07-30T11:40:13.756Z,0.65
2022-07-30T11:42:43.239Z,0.80
2022-07-30T11:45:26.883Z,0.65
2022-07-30T11:47:57.656Z,0.60
2022-07-30T11:50:28.196Z,0.70
2022-07-30T11:52:58.169Z,0.70
2022-07-30T11:55:32.828Z,0.70
2022-07-30T11:58:02.878Z,0.40
2022-07-30T12:00:37.434Z,0.50
2022-07-30T12:03:12.982Z,0.60
2022-07-30T12:05:42.035Z,0.40
2022-07-30T12:08:36.131Z,0.50
2022-07-30T12:11:02.202Z,0.40
2022-07-30T12:13:44.248Z,0.50
2022-07-30T12:16:15.950Z,0.65
2022-07-30T12:18:44.647Z,0.43
2022-07-30T12:21:15.687Z,0.77
2022-07-30T12:23:44.600Z,0.75
2022-07-30T12:26:26.516Z,0.60
2022-07-30T12:28:56.075Z,0.50
2022-07-30T12:31:24.519Z,0.57
2022-07-30T12:33:52.758Z,0.50
2022-07-30T12:36:31.304Z,0.40
2022-07-30T12:39:01.413Z,0.43
2022-07-30T12:41:44.524Z,0.40
2022-07-30T12:44:28.052Z,0.63
2022-07-30T12:46:56.316Z,0.60
2022-07-30T12:49:37.624Z,0.57
2022-07-30T12:52:11.857Z,0.40
2022-07-30T12:54:43.143Z,0.47
2022-07-30T12:57:12.815Z,0.65
2022-07-30T12:59:41.011Z,0.40
2022-07-30T13:02:09.252Z,0.50
2022-07-30T13:04:58.916Z,0.60
2022-07-30T13:07:54.545Z,0.65
2022-07-30T13:10:25.040Z,0.43
2022-07-30T13:12:58.501Z,0.60
2022-07-30T13:15:27.416Z,0.50
2022-07-30T13:17:55.635Z,0.80
2022-07-30T13:20:23.998Z,0.52
2022-07-30T13:22:52.355Z,0.40
2022-07-30T13:25:20.542Z,0.35
2022-07-30T13:27:48.909Z,0.40
2022-07-30T13:30:18.592Z,0.50
2022-07-30T13:32:46.784Z,0.30
2022-07-30T13:35:15.194Z,0.30
2022-07-30T13:37:43.464Z,0.38
2022-07-30T13:40:14.571Z,0.43
2022-07-30T13:42:42.886Z,0.40
2022-07-30T13:45:11.775Z,0.30
2022-07-30T13:47:41.341Z,0.50
2022-07-30T13:50:10.166Z,0.47
2022-07-30T13:52:38.513Z,0.40
2022-07-30T13:55:07.421Z,0.50
2022-07-30T13:57:35.793Z,0.30
2022-07-30T14:00:04.840Z,0.40
2022-07-30T14:02:33.412Z,0.47
2022-07-30T14:05:07.065Z,0.50
2022-07-30T14:07:35.479Z,0.30
2022-07-30T14:10:03.999Z,0.50
2022-07-30T14:12:34.914Z,0.40
2022-07-30T14:15:05.685Z,0.50
2022-07-30T14:17:34.003Z,0.30
2022-07-30T14:20:03.797Z,0.30
2022-07-30T14:22:32.072Z,0.40
2022-07-30T14:25:01.227Z,0.65
2022-07-30T14:27:29.476Z,0.63
2022-07-30T14:29:57.682Z,0.30
2022-07-30T14:32:28.734Z,0.50
2022-07-30T14:35:00.809Z,0.45
2022-07-30T14:37:30.540Z,0.60
2022-07-30T14:39:58.927Z,0.50
2022-07-30T14:42:27.209Z,0.90
2022-07-30T14:44:57.075Z,0.50
2022-07-30T14:47:25.558Z,0.60
2022-07-30T14:49:54.547Z,0.63
2022-07-30T14:52:22.704Z,0.40
2022-07-30T14:54:52.417Z,0.40
2022-07-30T14:57:20.665Z,0.57
2022-07-30T14:59:48.976Z,0.40
2022-07-30T15:02:17.250Z,0.40
2022-07-30T15:04:48.575Z,0.60
2022-07-30T15:07:16.857Z,0.45
2022-07-30T15:09:45.311Z,0.60
2022-07-30T15:12:23.573Z,0.70
2022-07-30T15:14:55.601Z,0.40
2022-07-30T15:17:23.837Z,0.30
2022-07-30T15:19:52.209Z,0.30
2022-07-30T15:22:20.908Z,0.40
2022-07-30T15:24:49.728Z,0.50
2022-07-30T15:27:24.743Z,0.40
2022-07-30T15:30:01.393Z,0.50
2022-07-30T15:32:29.573Z,0.40
2022-07-30T15:34:58.725Z,0.43
2022-07-30T15:37:27.197Z,0.40
2022-07-30T15:39:55.436Z,0.40
2022-07-30T15:42:27.251Z,0.40
2022-07-30T15:45:16.042Z,0.40
2022-07-30T15:47:44.943Z,0.40
2022-07-30T15:50:13.419Z,0.40
2022-07-30T15:52:42.822Z,0.60
2022-07-30T15:55:11.554Z,0.40
2022-07-30T15:57:41.581Z,0.32
2022-07-30T16:00:10.584Z,0.52
2022-07-30T16:02:39.550Z,0.40
2022-07-30T16:05:13.478Z,0.40
2022-07-30T16:07:42.531Z,0.50
2022-07-30T16:10:11.638Z,0.73
2022-07-30T16:12:42.081Z,0.80
2022-07-30T16:15:11.346Z,0.80
2022-07-30T16:17:40.132Z,1.00
2022-07-30T16:20:10.141Z,0.85
2022-07-30T16:22:38.421Z,0.80
2022-07-30T16:25:07.420Z,0.93
2022-07-30T16:27:35.751Z,1.00
2022-07-30T16:30:06.140Z,0.95
2022-07-30T16:32:34.416Z,0.75
2022-07-30T16:35:02.645Z,0.70
2022-07-30T16:37:31.108Z,0.68
2022-07-30T16:39:59.367Z,0.80
2022-07-30T16:42:27.666Z,0.50
2022-07-30T16:44:55.883Z,0.50
2022-07-30T16:47:26.543Z,0.50
2022-07-30T16:49:54.811Z,0.80
2022-07-30T16:52:22.961Z,0.50
2022-07-30T16:54:57.269Z,0.57
2022-07-30T16:57:25.469Z,0.60
2022-07-30T16:59:53.978Z,0.60
2022-07-30T17:02:24.098Z,0.50
2022-07-30T17:04:54.793Z,0.55
2022-07-30T17:07:23.310Z,0.30
2022-07-30T17:09:53.496Z,0.38
2022-07-30T17:12:25.448Z,0.30
2022-07-30T17:14:55.458Z,0.32
2022-07-30T17:17:23.797Z,0.40
2022-07-30T17:19:52.248Z,0.43
2022-07-30T17:22:22.236Z,0.40
2022-07-30T17:24:51.653Z,0.40
2022-07-30T17:27:19.902Z,0.40
2022-07-30T17:29:49.975Z,0.40
2022-07-30T17:32:19.987Z,0.50
2022-07-30T17:34:48.633Z,0.43
2022-07-30T17:37:17.168Z,0.40
2022-07-30T17:40:19.895Z,0.50
2022-07-30T17:42:36.846Z,0.68
2022-07-30T17:45:05.745Z,0.30
2022-07-30T17:47:35.419Z,0.73
2022-07-30T17:50:03.905Z,0.50
2022-07-30T17:52:32.192Z,0.82
2022-07-30T17:55:01.995Z,0.50
2022-07-30T17:57:30.252Z,0.60
2022-07-30T17:59:58.473Z,0.63
2022-07-30T18:02:29.516Z,0.80
2022-07-30T18:04:57.785Z,0.80
2022-07-30T18:07:26.101Z,0.57
2022-07-30T18:09:54.305Z,0.70
2022-07-30T18:12:23.976Z,0.80
2022-07-30T18:14:52.549Z,1.00
2022-07-30T18:17:21.135Z,0.75
2022-07-30T18:19:50.370Z,0.93
2022-07-30T18:22:29.424Z,1.00
2022-07-30T18:25:00.484Z,0.80
2022-07-30T18:27:30.917Z,1.23
2022-07-30T18:29:59.324Z,1.25
2022-07-30T18:32:27.550Z,0.82
2022-07-30T18:34:55.817Z,0.85
2022-07-30T18:37:25.061Z,0.98
2022-07-30T18:40:10.810Z,0.88
2022-07-30T18:42:40.478Z,0.82
2022-07-30T18:45:10.452Z,0.80
2022-07-30T18:47:38.671Z,1.02
2022-07-30T18:50:08.034Z,0.82
2022-07-30T18:52:38.792Z,0.80
2022-07-30T18:55:08.273Z,1.02
2022-07-30T18:57:37.507Z,0.88
2022-07-30T19:00:09.825Z,0.80
2022-07-30T19:02:58.054Z,1.30
2022-07-30T19:05:26.383Z,0.73
2022-07-30T19:07:58.331Z,0.80
2022-07-30T19:10:27.406Z,0.93
2022-07-30T19:12:55.842Z,0.73
2022-07-30T19:15:25.611Z,1.15
2022-07-30T19:17:53.959Z,0.70
2022-07-30T19:20:23.433Z,0.93
2022-07-30T19:22:53.322Z,0.93
2022-07-30T19:25:21.853Z,0.95
2022-07-30T19:27:50.038Z,0.80
2022-07-30T19:33:04.376Z,1.13
2022-07-30T19:35:32.679Z,1.00
2022-07-30T19:38:00.890Z,1.10
2022-07-30T19:40:35.187Z,1.13
2022-07-30T19:43:10.261Z,0.68
2022-07-30T19:45:58.434Z,1.33
2022-07-30T19:48:31.601Z,0.80
2022-07-30T19:51:04.475Z,0.85
2022-07-30T19:53:34.067Z,0.70
2022-07-30T19:56:06.981Z,0.60
2022-07-30T19:58:41.987Z,0.90
2022-07-30T20:01:12.310Z,1.00
2022-07-30T20:03:45.410Z,0.60
2022-07-30T20:06:16.200Z,1.20
2022-07-30T20:08:45.255Z,0.75
2022-07-30T20:11:21.298Z,1.17
2022-07-30T20:14:02.852Z,0.98
2022-07-30T20:16:31.130Z,1.00
2022-07-30T20:19:03.350Z,0.70
2022-07-30T20:21:56.029Z,0.63
2022-07-30T20:24:21.957Z,1.55
2022-07-30T20:26:50.414Z,1.08
2022-07-30T20:29:18.911Z,0.70
2022-07-30T20:31:49.702Z,0.80
2022-07-30T20:34:23.325Z,0.70
2022-07-30T20:36:52.974Z,0.93
2022-07-30T20:39:22.182Z,1.00
2022-07-30T20:42:07.510Z,1.23
2022-07-30T20:44:36.871Z,1.08
2022-07-30T20:47:08.189Z,1.25
2022-07-30T20:49:38.808Z,1.10
2022-07-30T20:52:09.668Z,0.98
2022-07-30T20:54:42.328Z,1.58
2022-07-30T20:57:15.504Z,0.80
2022-07-30T20:59:44.266Z,1.42
2022-07-30T21:02:15.349Z,1.27
2022-07-30T21:04:46.327Z,1.40
2022-07-30T21:07:14.900Z,0.95
2022-07-30T21:09:52.763Z,1.45
2022-07-30T21:12:32.775Z,1.25
2022-07-30T21:15:05.515Z,1.25
2022-07-30T21:17:51.558Z,0.93
2022-07-30T21:20:27.930Z,1.15
2022-07-30T21:22:56.630Z,1.00
2022-07-30T21:25:32.532Z,1.15
2022-07-30T21:28:02.766Z,1.00
2022-07-30T21:30:32.704Z,1.15
2022-07-30T21:35:54.854Z,0.80
2022-07-30T21:38:26.661Z,1.17
2022-07-30T21:40:54.995Z,1.60
2022-07-30T21:43:30.092Z,1.17
2022-07-30T21:46:03.710Z,1.50
2022-07-30T21:48:35.755Z,1.58
2022-07-30T21:51:05.453Z,1.45
2022-07-30T21:53:53.661Z,1.40
2022-07-30T21:56:21.971Z,1.27
2022-07-30T21:58:50.211Z,1.30
2022-07-30T22:01:22.561Z,2.05
2022-07-30T22:04:01.516Z,1.75
2022-07-30T22:06:39.934Z,2.10
2022-07-30T22:09:19.170Z,1.83
2022-07-30T22:12:00.637Z,1.98
2022-07-30T22:14:30.061Z,1.98
2022-07-30T22:17:00.547Z,1.92
2022-07-30T22:19:32.806Z,2.67
2022-07-30T22:22:05.276Z,3.63
2022-07-30T22:24:50.606Z,3.17
2022-07-30T22:27:18.979Z,4.13
2022-07-30T22:29:55.600Z,5.18
2022-07-30T22:32:24.346Z,3.75
2022-07-30T22:34:53.024Z,3.90
2022-07-30T22:37:24.887Z,4.25
2022-07-30T22:40:01.730Z,4.15
2022-07-30T22:42:30.083Z,3.53
2022-07-30T22:44:59.764Z,3.05
2022-07-30T22:47:51.086Z,3.25
2022-07-30T22:50:18.209Z,3.58
2022-07-30T22:54:03.588Z,4.63
2022-07-30T22:55:51.503Z,3.53
2022-07-30T22:58:26.387Z,3.33
2022-07-30T23:00:55.044Z,3.08
2022-07-30T23:03:23.277Z,2.90
2022-07-30T23:05:55.079Z,2.58
2022-07-30T23:08:29.400Z,2.85
2022-07-30T23:10:58.004Z,2.75
2022-07-30T23:13:26.323Z,2.80
2022-07-30T23:15:54.596Z,1.92
2022-07-30T23:18:22.782Z,1.85
2022-07-30T23:20:51.017Z,1.58
2022-07-30T23:23:22.889Z,1.20
2022-07-30T23:25:52.516Z,1.30
2022-07-30T23:28:20.663Z,1.30
2022-07-30T23:30:49.060Z,1.67
2022-07-30T23:35:53.487Z,1.13
2022-07-30T23:38:43.716Z,1.67
2022-07-30T23:41:30.020Z,1.20
2022-07-30T23:43:59.205Z,1.33
2022-07-30T23:46:27.451Z,1.23
2022-07-30T23:48:56.766Z,1.80
2022-07-30T23:51:25.596Z,1.40
2022-07-30T23:54:01.968Z,1.30
2022-07-30T23:56:32.347Z,1.23
2022-07-30T23:59:00.574Z,1.50
